Blue Ridge, New York
Current Conditions -  °F | °C
As of 12:15 PM on Saturday 20 Dec 2014 (Local Time) from K6B0 Reporting Station
Clear Clear  
Wind Chill: -4°   Ceiling: Unl
Heat Index: -4°   Visibility: 10mi
Dew Point: -9°   Wind: 0mph
Humidity: 69%   Direction: NA
Pressure: 30.27"   Gusts: NA
Location:  43.8504°N, 73.7678°W
Report Text: K6B0 201715Z AUTO 00000KT 10SM CLR M04/M09 A3027 RMK AO2 T10431092
Loading
Personal Weather Stations






























Interactive Weather Map New forecast layout! Learn more

10-Day Weather Forecast

Advertisements
Track Severe Weather on mobile